Terminal Aerodrome Forecast
Issued by NWS

Home | Current Version | Previous Version | Text Only | Print | Product List | Glossary On
Versions: 1 2 3 4 5 6 7 8 9 10 11 12 13 14 15 16 17 18 19 20 21 22 23 24
000
FTUS43 KAPX 180500
TAFPLN
TAF
KPLN 180536Z 1806/1906 03008KT P6SM SCT015 OVC023
      TEMPO 1806/1808 BKN015 OVC023
     FM181300 07008KT P6SM BKN028
     FM181600 05008KT P6SM FEW028
     FM182000 06007KT P6SM SKC
     FM190100 00000KT P6SM SKC=

USA.gov is the U.S. government's official web portal to all federal, state and local government web resources and services.